Aguilares, Texas
Current Conditions -  °F | °C
As of 11:35 PM on Saturday 25 Oct 2014 (Local Time) from KHBV Reporting Station
Clear Clear  
Wind Chill: 65°   Ceiling: Unl
Heat Index: 65°   Visibility: 10mi
Dew Point: 60°   Wind: 3mph
Humidity: 83%   Direction: 160°SSE
Pressure: 30.13"   Gusts: NA
Location:  27.4459°N, 99.0184°W
Report Text: KHBV 260435Z AUTO 16003KT 10SM CLR 19/16 A3013 RMK AO2 T01850155 PWINO
Loading
Personal Weather Stations






























Interactive Weather Map
Tropical Storm Tracking
New forecast layout! Learn more

10-Day Weather Forecast

Advertisements
Track Severe Weather on mobile